메인 페이지
METAR-TAF:

METAR-TAF

공항 :

히베이랑프레투, 상파울루, 브라질

위도: 21-08S, 경도: 047-47W, 고도: 549m

현재 날씨관측

예보는 1 시간 3분 전, 22:00시(UTC)에 발표되었습니다.
남남동7kt
온도 22°C
습도 35%
기압 1020 hPa
시정 10km 이상
1500m 미만 상공 구름 및 적란운 없음

METAR: SBRP 202200Z 15007KT CAVOK 22/06 Q1020

시각: 20:03 (23:03 UTC)

예보

예보는 6 시간 33분 전, 16:30시(UTC)에 발표되었습니다.
예보 대상 시간: 20일 18시부터 21일 06시까지 (UTC)
북북동3kt
시정 10km 이상
1500m 미만 상공 구름 및 적란운 없음
전환 중
20일 19시부터 20일 21시까지 (UTC)
남남동5kt
전환 중
20일 22시부터 20일 24시까지 (UTC)
5kt

TAF: SBRP 201630Z 2018/2106 03003KT CAVOK TX30/2018Z TN18/2106Z BECMG 2019/2021 15005KT BECMG 2022/2024 09005KT RMK PHG

4,000개 이상의 공항 관측 자료 및 예보 (METAR 및 TAF 보고).

지도상에서 검색 가능한 기상관측소가 노란 점과 빨간 점으로 표시되어 있습니다.

기상관측소 명을 보려면 표시 위로 마우스를 이동하세요.

날씨 관측과 예보를 보려면 클릭하세요.

지도 변경 : 확대하려면 엑스 표시가 있는 녹색 버튼, 축소하려면 빼기 표시가 있는 녹색 버튼, 다음 페이지의 지도를 보려면 녹색 화살표를 클릭하세요.


METAR-TAF: